Time;durP1;ratioP1;P1;durP2;ratioP2;P2;SDS_P1;SDS_P2;PMS_P1;PMS_P2;Temp;Humidity;BMP_temperature;BMP_pressure;BME280_temperature;BME280_humidity;BME280_pressure;Samples;Min_cycle;Max_cycle;Signal;HPM_P1;HPM_P2
2020/12/23 06:23:11;;;;;;;50.30;19.35;;;;;;;2.98;81.63;99716.97;1770813;78;21332;-89
2020/12/23 06:32:47;;;;;;;47.48;19.32;;;;;;;2.97;81.79;99717.41;1794208;78;21162;-92
2020/12/23 06:35:15;;;;;;;46.42;20.00;;;;;;;2.95;81.92;99718.23;1741972;81;21140;-93
2020/12/23 06:37:42;;;;;;;55.60;20.40;;;;;;;3.01;81.82;99732.88;1766006;81;21167;-94
2020/12/23 06:40:11;;;;;;;47.10;19.90;;;;;;;3.02;81.62;99738.02;1767688;81;21131;-93
2020/12/23 06:42:48;;;;;;;51.40;20.48;;;;;;;3.01;81.58;99733.73;1766045;81;21157;-94
2020/12/23 06:45:16;;;;;;;46.40;20.02;;;;;;;3.04;81.24;99736.76;1697910;81;21125;-93
2020/12/23 06:47:44;;;;;;;49.63;20.45;;;;;;;3.01;80.93;99722.17;1740978;82;21253;-94
2020/12/23 06:50:16;;;;;;;48.02;18.17;;;;;;;2.96;81.01;99724.68;1767713;81;21574;-93
2020/12/23 06:52:46;;;;;;;53.05;18.95;;;;;;;2.91;81.38;99742.14;1740832;81;21250;-93
2020/12/23 06:55:19;;;;;;;41.15;17.45;;;;;;;2.89;81.14;99734.40;1728335;82;21237;-92
2020/12/23 06:57:54;;;;;;;50.38;17.85;;;;;;;2.84;81.72;99737.30;1766880;81;21151;-92
2020/12/23 07:00:44;;;;;;;48.08;17.82;;;;;;;2.79;82.29;99730.81;1764165;81;21341;-93
2020/12/23 07:03:16;;;;;;;41.92;17.52;;;;;;;2.83;82.11;99735.59;1768982;81;21134;-91
2020/12/23 07:05:48;;;;;;;46.88;17.50;;;;;;;2.83;82.48;99716.33;1767125;80;21174;-92
2020/12/23 07:08:34;;;;;;;48.20;18.57;;;;;;;2.92;82.41;99694.63;1724511;80;21330;-92
2020/12/23 07:11:02;;;;;;;41.95;17.85;;;;;;;3.04;82.74;99710.64;1760369;80;21771;-91
2020/12/23 07:13:34;;;;;;;49.63;19.10;;;;;;;3.14;82.51;99708.68;1763484;81;21283;-93
2020/12/23 07:16:04;;;;;;;55.98;20.10;;;;;;;3.25;82.17;99694.69;1738664;81;21264;-93
2020/12/23 07:18:34;;;;;;;54.48;20.82;;;;;;;3.41;82.26;99718.89;1762983;80;21262;-93
2020/12/23 07:21:08;;;;;;;58.75;22.48;;;;;;;3.45;81.93;99713.38;1768077;81;21328;-93
2020/12/23 07:23:36;;;;;;;63.70;23.90;;;;;;;3.53;81.40;99709.20;1778818;80;21292;-93
2020/12/23 07:26:06;;;;;;;59.70;22.27;;;;;;;3.56;81.15;99711.40;1776760;80;21162;-94
2020/12/23 07:28:39;;;;;;;54.27;22.05;;;;;;;3.56;80.74;99722.08;1776284;80;21258;-92
2020/12/23 07:31:10;;;;;;;51.95;19.60;;;;;;;3.59;80.63;99727.28;1779144;79;21149;-94
2020/12/23 07:33:39;;;;;;;52.33;22.07;;;;;;;3.52;80.10;99722.48;1760750;80;21238;-93
2020/12/23 07:36:08;;;;;;;42.73;19.75;;;;;;;3.55;80.31;99714.80;1778073;80;21252;-94
2020/12/23 07:38:38;;;;;;;50.05;22.27;;;;;;;3.52;80.12;99722.89;1794287;79;21240;-93
2020/12/23 07:41:11;;;;;;;54.85;22.60;;;;;;;3.51;80.00;99718.17;1773359;79;21259;-93
2020/12/23 07:43:39;;;;;;;46.55;19.30;;;;;;;3.50;80.15;99711.72;1780059;80;21285;-93
2020/12/23 07:46:07;;;;;;;53.58;18.40;;;;;;;3.45;80.35;99722.38;1770777;80;21157;-92
2020/12/23 07:48:36;;;;;;;45.20;19.02;;;;;;;3.44;80.26;99730.92;1750277;80;21263;-92
2020/12/23 07:51:03;;;;;;;43.60;18.02;;;;;;;3.34;80.81;99737.63;1792995;79;21099;-93
2020/12/23 07:53:31;;;;;;;48.50;19.73;;;;;;;3.39;81.06;99739.86;1798168;79;21251;-93
2020/12/23 07:56:05;;;;;;;47.78;20.30;;;;;;;3.37;81.10;99742.41;1750569;81;21126;-93
2020/12/23 07:58:36;;;;;;;48.70;20.95;;;;;;;3.33;81.24;99750.91;1739255;82;21162;-93
2020/12/23 08:01:08;;;;;;;50.70;21.82;;;;;;;3.32;81.40;99745.74;1747960;82;21259;-93
2020/12/23 08:03:37;;;;;;;51.92;21.02;;;;;;;3.30;81.72;99750.89;1796454;79;21227;-94
2020/12/23 08:06:11;;;;;;;51.90;22.00;;;;;;;3.27;81.41;99753.83;1748948;82;21173;-94
2020/12/23 08:08:41;;;;;;;57.13;23.15;;;;;;;3.29;81.05;99761.13;1713439;83;21158;-93
2020/12/23 08:11:15;;;;;;;50.63;22.02;;;;;;;3.25;81.55;99756.36;1711203;83;21244;-94
2020/12/23 08:13:44;;;;;;;56.25;23.32;;;;;;;3.30;82.18;99756.42;1798250;79;21251;-94
2020/12/23 08:16:15;;;;;;;53.23;22.48;;;;;;;3.38;81.01;99748.40;1791076;79;21685;-94
2020/12/23 08:18:44;;;;;;;55.03;24.55;;;;;;;3.42;81.79;99745.45;1800094;79;21225;-94
2020/12/23 08:21:17;;;;;;;56.00;22.58;;;;;;;3.53;81.79;99752.91;1784392;79;21256;-94
2020/12/23 08:23:46;;;;;;;48.63;20.60;;;;;;;3.64;81.23;99751.76;1782521;79;21116;-93
2020/12/23 08:26:16;;;;;;;47.08;19.65;;;;;;;3.70;81.13;99756.58;1733809;80;21131;-93
2020/12/23 08:28:47;;;;;;;49.98;19.02;;;;;;;3.73;81.85;99747.59;1799667;79;21261;-93
2020/12/23 08:31:19;;;;;;;49.45;19.07;;;;;;;3.79;81.76;99746.39;1801963;79;21276;-93
2020/12/23 08:33:49;;;;;;;46.30;18.70;;;;;;;3.91;81.60;99753.41;1777013;80;21195;-93
2020/12/23 08:36:21;;;;;;;42.93;17.67;;;;;;;3.97;81.51;99742.33;1799019;79;21229;-93
2020/12/23 08:38:49;;;;;;;39.03;17.42;;;;;;;4.03;81.09;99744.97;1806508;78;21137;-93
2020/12/23 08:41:18;;;;;;;38.90;16.62;;;;;;;4.10;80.76;99760.05;1797066;79;21264;-93
2020/12/23 08:43:50;;;;;;;41.75;17.80;;;;;;;4.26;81.22;99752.08;1799904;79;21273;-93
2020/12/23 08:46:23;;;;;;;44.23;20.95;;;;;;;4.25;80.60;99751.66;1773866;79;21248;-94
2020/12/23 08:48:53;;;;;;;44.03;20.62;;;;;;;4.30;80.48;99737.13;1789779;79;21288;-94
2020/12/23 08:51:24;;;;;;;46.05;20.82;;;;;;;4.41;80.62;99735.51;1792889;79;21213;-94
2020/12/23 08:53:54;;;;;;;45.08;20.17;;;;;;;4.52;80.44;99737.78;1801733;79;21233;-95
2020/12/23 08:56:30;;;;;;;52.17;21.35;;;;;;;4.60;79.97;99729.27;1775109;79;21142;-94
2020/12/23 08:59:05;;;;;;;46.37;20.23;;;;;;;4.53;79.24;99741.20;1777220;79;21292;-94
2020/12/23 09:01:35;;;;;;;41.30;18.73;;;;;;;4.55;79.15;99731.78;1800743;79;21103;-94
2020/12/23 09:04:12;;;;;;;51.63;19.45;;;;;;;4.54;78.63;99733.94;1756711;82;21307;-93
2020/12/23 09:06:44;;;;;;;44.67;19.50;;;;;;;4.57;79.03;99723.65;1778233;80;21130;-92
2020/12/23 09:09:23;;;;;;;45.98;20.08;;;;;;;4.57;79.12;99729.66;1758369;80;21273;-91
2020/12/23 09:11:54;;;;;;;53.50;21.37;;;;;;;4.63;79.13;99730.57;1788766;79;21145;-94
2020/12/23 09:14:32;;;;;;;50.60;20.90;;;;;;;4.59;78.96;99728.39;1787475;80;21253;-93
2020/12/23 09:17:13;;;;;;;46.15;18.25;;;;;;;4.57;78.91;99730.94;1784177;79;21261;-95
2020/12/23 09:19:54;;;;;;;47.48;20.30;;;;;;;4.60;78.97;99721.55;1740425;80;22016;-95
2020/12/23 09:22:37;;;;;;;58.30;18.30;;;;;;;4.65;79.22;99718.57;1786699;80;21292;-94
2020/12/23 09:25:25;;;;;;;45.50;18.80;;;;;;;4.69;79.06;99710.02;1789520;80;21436;-94
2020/12/23 09:28:08;;;;;;;44.00;17.92;;;;;;;4.75;79.03;99710.06;1781865;80;21127;-94
2020/12/23 09:30:49;;;;;;;38.70;16.20;;;;;;;4.78;78.92;99707.53;1773035;80;21280;-94
2020/12/23 09:33:22;;;;;;;44.58;17.60;;;;;;;4.85;78.77;99701.55;1778740;80;21603;-93
2020/12/23 09:36:05;;;;;;;60.70;19.80;;;;;;;4.93;79.03;99683.18;1770707;81;21349;-93
2020/12/23 09:38:35;;;;;;;48.70;17.50;;;;;;;5.05;79.12;99682.38;1771580;81;21117;-94
2020/12/23 09:41:06;;;;;;;42.20;18.37;;;;;;;5.21;79.19;99669.16;1773125;80;21248;-94
2020/12/23 09:43:36;;;;;;;47.17;19.35;;;;;;;5.31;77.99;99667.09;1772659;81;21257;-94
2020/12/23 09:46:08;;;;;;;65.42;28.17;;;;;;;5.45;78.96;99670.14;1726943;81;21182;-95
2020/12/23 09:48:36;;;;;;;53.17;25.05;;;;;;;5.62;78.10;99665.93;1778315;81;21264;-93
2020/12/23 09:51:06;;;;;;;58.45;25.72;;;;;;;5.63;76.09;99665.49;1774981;81;21095;-94
2020/12/23 09:53:35;;;;;;;68.57;38.50;;;;;;;5.64;77.32;99665.51;1778586;81;21244;-93
2020/12/23 09:56:05;;;;;;;75.45;39.05;;;;;;;5.68;76.41;99654.78;1777870;79;21264;-94
2020/12/23 09:58:33;;;;;;;52.75;24.30;;;;;;;5.70;76.64;99651.34;1778854;80;21146;-94
2020/12/23 10:01:01;;;;;;;51.37;24.43;;;;;;;5.67;75.96;99647.88;1775885;81;21253;-92
2020/12/23 10:03:29;;;;;;;53.48;23.10;;;;;;;5.65;76.53;99646.61;1751870;81;21138;-92
2020/12/23 10:06:00;;;;;;;43.68;21.12;;;;;;;5.68;76.81;99641.45;1752362;81;21681;-95
2020/12/23 10:08:28;;;;;;;51.28;22.20;;;;;;;5.46;76.12;99634.05;1740839;81;21256;-92
2020/12/23 10:10:59;;;;;;;53.20;24.40;;;;;;;5.46;76.62;99626.75;1757599;81;21154;-92
2020/12/23 10:13:29;;;;;;;61.08;25.15;;;;;;;5.50;77.09;99619.46;1780204;80;21296;-91
2020/12/23 10:15:58;;;;;;;51.90;23.77;;;;;;;5.55;77.31;99619.03;1780322;81;21245;-92
2020/12/23 10:18:32;;;;;;;50.33;20.55;;;;;;;5.54;77.38;99619.91;1734151;81;21267;-92
2020/12/23 10:21:04;;;;;;;61.77;29.37;;;;;;;5.38;77.15;99603.08;1748893;81;21260;-91
2020/12/23 10:23:39;;;;;;;51.10;23.52;;;;;;;5.51;77.72;99617.30;1729200;83;21157;-93
2020/12/23 10:37:05;;;;;;;45.95;18.02;;;;;;;5.51;77.57;99604.41;1816836;75;953433;-94
2020/12/23 10:39:34;;;;;;;41.75;17.77;;;;;;;5.42;77.62;99597.51;1799890;78;21319;-94
2020/12/23 10:42:25;;;;;;;39.60;17.90;;;;;;;5.38;77.56;99595.34;1796598;78;21338;-94
2020/12/23 10:44:54;;;;;;;44.60;18.75;;;;;;;5.43;77.93;99597.07;1769146;80;21348;-93
2020/12/23 10:48:27;;;;;;;52.60;19.07;;;;;;;5.54;78.25;99597.55;1750573;78;21319;-92
2020/12/23 10:50:58;;;;;;;57.38;19.98;;;;;;;5.66;78.42;99595.44;1754822;79;21307;-91
2020/12/23 10:53:47;;;;;;;45.25;18.32;;;;;;;5.76;78.14;99584.27;1754752;79;21356;-94
2020/12/23 10:56:15;;;;;;;47.93;18.37;;;;;;;5.83;78.42;99576.55;1768462;80;21257;-94
2020/12/23 10:58:45;;;;;;;82.82;38.60;;;;;;;5.88;78.85;99580.86;1749090;79;21283;-94
2020/12/23 11:04:31;;;;;;;49.45;22.87;;;;;;;5.90;77.53;99577.00;1814758;78;21307;-94
2020/12/23 11:06:59;;;;;;;63.55;24.82;;;;;;;5.97;77.93;99576.20;1823126;78;21285;-95
2020/12/23 11:09:27;;;;;;;58.15;23.57;;;;;;;6.06;78.08;99569.73;1751062;79;21312;-94
2020/12/23 11:11:55;;;;;;;57.88;25.00;;;;;;;6.10;78.08;99571.45;1742475;80;21317;-94
2020/12/23 11:14:23;;;;;;;55.38;23.70;;;;;;;6.13;77.77;99559.84;1788638;78;21292;-95
2020/12/23 11:16:52;;;;;;;53.08;23.87;;;;;;;6.16;77.82;99554.67;1770518;80;21524;-94
2020/12/23 11:19:22;;;;;;;44.42;22.80;;;;;;;6.20;77.87;99562.43;1641305;84;21221;-94
2020/12/23 11:21:50;;;;;;;66.97;31.77;;;;;;;6.20;78.02;99541.34;1665953;84;21294;-93
2020/12/23 11:24:18;;;;;;;54.08;24.98;;;;;;;6.24;77.83;99531.88;1693683;83;21178;-94
2020/12/23 11:29:42;;;;;;;68.30;29.35;;;;;;;6.28;78.48;99518.09;1619650;87;21304;-94
2020/12/23 11:35:30;;;;;;;58.58;27.65;;;;;;;6.35;78.41;99519.83;1767052;79;21226;-92
2020/12/23 11:38:06;;;;;;;50.70;21.55;;;;;;;6.35;79.07;99505.18;1733449;82;21339;-95
2020/12/23 11:43:43;;;;;;;70.28;23.60;;;;;;;6.45;79.40;99489.69;1711028;84;21735;-93
2020/12/23 11:49:05;;;;;;;42.95;19.00;;;;;;;6.73;79.75;99484.00;1761669;80;21301;-94
2020/12/23 11:52:10;;;;;;;49.15;17.42;;;;;;;6.89;80.26;99488.25;1676165;83;21667;-95
2020/12/23 11:54:59;;;;;;;40.12;14.45;;;;;;;7.09;80.52;99492.48;1681256;85;21212;-95
2020/12/23 11:57:27;;;;;;;30.17;13.60;;;;;;;7.21;81.30;99482.07;1609748;88;21216;-94
2020/12/23 12:00:18;;;;;;;39.45;14.87;;;;;;;7.41;81.67;99478.52;1622688;88;21202;-94
2020/12/23 12:02:47;;;;;;;31.17;13.70;;;;;;;7.56;81.20;99465.49;1660552;84;21338;-95
2020/12/23 12:05:15;;;;;;;35.68;15.40;;;;;;;7.83;81.19;99454.49;1646504;86;22248;-94
2020/12/23 12:07:59;;;;;;;31.12;13.38;;;;;;;7.94;80.82;99450.95;1612551;88;21281;-94
2020/12/23 12:10:27;;;;;;;19.23;10.53;;;;;;;8.01;81.18;99452.19;1708569;83;21319;-95
2020/12/23 12:12:57;;;;;;;21.75;10.48;;;;;;;8.00;81.49;99439.68;1734346;81;21338;-94
2020/12/23 12:15:42;;;;;;;28.15;11.57;;;;;;;8.13;81.20;99449.47;1787512;79;21149;-94
2020/12/23 12:18:10;;;;;;;20.68;10.08;;;;;;;8.16;81.14;99448.16;1789358;79;21581;-93
2020/12/23 12:20:38;;;;;;;29.60;11.25;;;;;;;8.11;81.46;99444.75;1779924;79;21204;-93
2020/12/23 12:23:08;;;;;;;26.68;11.40;;;;;;;8.26;80.84;99447.20;1754933;80;21339;-95
2020/12/23 12:25:36;;;;;;;25.52;11.25;;;;;;;8.35;80.86;99446.23;1746177;80;21542;-94
2020/12/23 12:28:43;;;;;;;20.57;10.32;;;;;;;8.39;80.82;99442.73;1785823;79;21283;-93
2020/12/23 12:34:34;;;;;;;24.98;10.80;;;;;;;8.60;80.72;99430.47;1702825;82;21196;-93
2020/12/23 12:37:01;;;;;;;26.57;11.18;;;;;;;8.92;79.39;99433.95;1724497;83;21347;-91
2020/12/23 12:39:29;;;;;;;31.33;10.98;;;;;;;8.95;79.72;99420.92;1701012;82;21207;-93
2020/12/23 12:44:53;;;;;;;27.20;10.25;;;;;;;8.85;79.20;99438.34;1720347;83;21284;-94
2020/12/23 12:47:21;;;;;;;25.05;10.45;;;;;;;8.95;79.05;99459.41;1720444;83;21309;-95
2020/12/23 12:50:14;;;;;;;24.10;11.97;;;;;;;8.94;79.04;99456.38;1685624;85;21320;-94
2020/12/23 12:52:45;;;;;;;29.72;10.00;;;;;;;8.88;78.99;99472.02;1694173;82;21617;-93
2020/12/23 12:55:17;;;;;;;23.92;10.65;;;;;;;8.83;79.37;99475.09;1663115;84;21221;-91
2020/12/23 12:57:44;;;;;;;24.32;10.88;;;;;;;8.67;79.98;99474.86;1643177;85;21650;-93
2020/12/23 13:00:12;;;;;;;22.00;11.50;;;;;;;8.76;79.75;99470.88;1639332;86;21176;-92
2020/12/23 13:02:40;;;;;;;21.52;10.68;;;;;;;8.59;80.26;99464.57;1709295;82;21352;-92
2020/12/23 13:05:19;;;;;;;24.85;12.45;;;;;;;8.48;80.65;99459.52;1651655;83;21186;-92
2020/12/23 13:08:00;;;;;;;30.80;13.25;;;;;;;8.43;80.88;99445.73;1591307;85;21204;-93
2020/12/23 13:10:27;;;;;;;26.33;12.18;;;;;;;8.12;81.27;99394.24;1688598;84;21226;-91
2020/12/23 13:12:55;;;;;;;27.40;10.93;;;;;;;8.32;81.57;99419.08;1663215;85;21221;-92
2020/12/23 13:15:23;;;;;;;21.77;9.50;;;;;;;8.34;81.18;99391.42;1683737;84;21335;-93
2020/12/23 13:17:52;;;;;;;22.27;9.45;;;;;;;8.31;81.47;99390.15;1658036;85;21196;-91
2020/12/23 13:20:20;;;;;;;32.88;9.68;;;;;;;8.24;82.43;99377.72;1675788;85;21216;-92
2020/12/23 13:22:48;;;;;;;19.42;9.65;;;;;;;8.30;82.06;99381.97;1631874;86;21613;-91
2020/12/23 13:25:16;;;;;;;22.60;10.03;;;;;;;8.29;82.45;99382.39;1647482;86;21224;-90
2020/12/23 13:27:43;;;;;;;26.15;10.20;;;;;;;8.26;82.75;99389.36;1688781;85;21222;-92
2020/12/23 13:30:11;;;;;;;22.32;10.55;;;;;;;8.17;83.42;99405.39;1643668;86;21692;-91
2020/12/23 13:32:45;;;;;;;22.95;9.83;;;;;;;8.11;83.97;99409.34;1666472;83;21337;-92
2020/12/23 13:35:26;;;;;;;20.20;9.15;;;;;;;8.15;83.52;99407.14;1631944;86;21320;-93
2020/12/23 13:40:52;;;;;;;30.35;10.78;;;;;;;8.20;83.30;99439.91;1740443;80;21137;-93
2020/12/23 13:43:42;;;;;;;34.43;14.30;;;;;;;8.08;84.35;99435.28;1736301;80;21211;-92
2020/12/23 13:47:14;;;;;;;33.48;15.43;;;;;;;8.10;84.53;99428.80;1725000;82;21175;-93
2020/12/23 13:49:44;;;;;;;30.72;14.73;;;;;;;8.09;84.18;99416.27;1681346;83;21142;-92
2020/12/23 13:52:12;;;;;;;27.75;13.72;;;;;;;8.14;83.83;99417.09;1759412;80;21245;-92
2020/12/23 13:54:59;;;;;;;29.92;13.53;;;;;;;7.87;84.11;99385.00;1679347;85;21311;-93
2020/12/23 13:57:27;;;;;;;22.90;11.30;;;;;;;8.14;84.67;99422.27;1657628;85;21177;-93
2020/12/23 13:59:55;;;;;;;30.37;13.08;;;;;;;8.21;84.00;99410.11;1681615;85;21284;-93
2020/12/23 14:02:24;;;;;;;28.95;12.58;;;;;;;8.16;85.09;99417.94;1681240;85;21320;-93
2020/12/23 14:05:10;;;;;;;25.70;12.85;;;;;;;8.08;85.37;99407.25;1678241;85;21253;-93
2020/12/23 14:11:00;;;;;;;26.02;13.00;;;;;;;8.02;85.27;99421.52;1702050;81;21173;-93
2020/12/23 14:16:40;;;;;;;27.02;13.88;;;;;;;8.03;83.79;99404.68;1628357;88;21313;-93
2020/12/23 14:19:09;;;;;;;29.98;14.87;;;;;;;7.97;84.46;99413.36;1605317;88;21321;-94
2020/12/23 14:21:38;;;;;;;26.87;13.40;;;;;;;8.00;84.41;99399.96;1624380;88;21190;-89
2020/12/23 14:24:41;;;;;;;20.75;11.33;;;;;;;7.97;83.71;99399.56;1660139;83;21319;-92
2020/12/23 14:27:09;;;;;;;21.62;9.88;;;;;;;7.94;84.47;99400.91;1678084;85;21162;-93
2020/12/23 14:29:37;;;;;;;19.20;10.03;;;;;;;7.84;85.20;99402.72;1684016;84;21302;-92
2020/12/23 14:32:05;;;;;;;17.70;9.00;;;;;;;7.71;86.13;99403.24;1669133;85;21158;-93
2020/12/23 14:34:33;;;;;;;21.00;10.13;;;;;;;7.75;85.86;99405.38;1676972;85;21189;-93
2020/12/23 14:37:03;;;;;;;17.15;8.78;;;;;;;7.82;84.96;99408.76;1652791;86;21273;-91
2020/12/23 14:39:46;;;;;;;19.10;8.33;;;;;;;7.76;85.65;99392.88;1635681;83;21218;-94
2020/12/23 14:42:28;;;;;;;14.13;7.95;;;;;;;7.74;85.90;99385.11;1594217;87;21263;-91
2020/12/23 14:44:56;;;;;;;15.78;7.70;;;;;;;7.70;85.93;99383.43;1599924;88;21842;-94
2020/12/23 14:47:25;;;;;;;17.37;8.23;;;;;;;7.78;85.08;99382.07;1585973;89;21277;-91
2020/12/23 14:50:13;;;;;;;16.12;7.75;;;;;;;7.79;85.45;99367.39;1617933;88;21474;-93
2020/12/23 14:52:45;;;;;;;17.65;8.15;;;;;;;7.80;85.36;99374.27;1616989;88;21186;-94
2020/12/23 14:55:16;;;;;;;17.98;7.87;;;;;;;7.76;85.71;99383.81;1614026;88;21197;-94
2020/12/23 14:57:45;;;;;;;13.80;7.30;;;;;;;7.79;85.56;99378.59;1658358;83;21539;-94
2020/12/23 15:00:15;;;;;;;13.70;6.40;;;;;;;7.72;85.70;99371.33;1698822;83;21602;-94
2020/12/23 15:02:57;;;;;;;14.47;7.00;;;;;;;7.67;85.79;99361.89;1688163;84;21276;-95
2020/12/23 15:35:01;;;;;;;17.77;8.80;;;;;;;7.41;86.90;99324.61;1729971;78;21237;31
2020/12/23 15:47:38;;;;;;;16.32;8.68;;;;;;;7.49;86.47;99342.21;1749243;77;21225;31
2020/12/23 17:21:40;;;;;;;23.02;9.65;;;;;;;8.04;84.20;99306.72;1659382;84;21234;-90
2020/12/23 17:24:08;;;;;;;21.45;10.08;;;;;;;8.09;83.95;99306.21;1633126;86;21761;-94
2020/12/23 17:26:36;;;;;;;25.37;10.85;;;;;;;8.17;83.96;99317.34;1624138;86;21732;-90
2020/12/23 17:29:05;;;;;;;22.05;10.72;;;;;;;8.19;83.53;99303.08;1745869;80;21149;-89
2020/12/23 17:31:34;;;;;;;20.40;10.43;;;;;;;8.06;83.37;99258.81;1709955;79;21233;-91
2020/12/23 17:34:05;;;;;;;25.15;11.00;;;;;;;8.22;83.33;99276.31;1681513;83;21173;-90
2020/12/23 17:36:33;;;;;;;22.15;10.23;;;;;;;8.25;83.25;99285.31;1674704;82;21189;-93
2020/12/23 17:41:47;;;;;;;27.22;9.58;;;;;;;8.23;83.04;99301.31;1743521;80;21174;-90
2020/12/23 17:44:20;;;;;;;22.02;10.18;;;;;;;8.15;83.48;99310.47;1639386;84;21273;-91
2020/12/23 17:46:58;;;;;;;20.17;9.73;;;;;;;8.14;83.37;99302.30;1760159;79;21204;-91
2020/12/23 17:49:25;;;;;;;22.77;10.75;;;;;;;8.11;83.54;99299.73;1693583;80;21178;-92
2020/12/23 17:51:53;;;;;;;22.55;10.18;;;;;;;8.13;83.51;99289.77;1645792;84;21213;-92
2020/12/23 17:54:20;;;;;;;20.57;9.03;;;;;;;8.17;83.42;99295.32;1677794;85;21209;-93
2020/12/23 17:56:49;;;;;;;20.25;9.93;;;;;;;8.19;83.37;99300.49;1633336;81;21189;-89
2020/12/23 17:59:17;;;;;;;25.20;10.63;;;;;;;8.20;83.39;99293.56;1689704;83;21871;-88
2020/12/23 18:01:44;;;;;;;23.15;11.53;;;;;;;8.24;83.34;99293.98;1648123;85;21224;-90
2020/12/23 18:07:35;;;;;;;23.27;12.03;;;;;;;8.26;83.33;99312.95;1646056;85;21166;-87
2020/12/23 18:13:15;;;;;;;29.35;13.68;;;;;;;8.22;83.32;99317.30;1632157;84;21214;-90
2020/12/23 18:15:42;;;;;;;28.40;14.80;;;;;;;8.23;83.23;99320.74;1656579;85;21161;-88
2020/12/23 18:18:10;;;;;;;28.62;15.18;;;;;;;8.22;83.15;99313.86;1629651;86;21226;-90
2020/12/23 18:20:57;;;;;;;26.12;13.83;;;;;;;8.22;83.13;99309.98;1719259;81;21177;-91
2020/12/23 18:23:25;;;;;;;28.90;13.90;;;;;;;8.19;82.89;99307.41;1714911;82;21191;-91
2020/12/23 18:25:52;;;;;;;27.95;14.30;;;;;;;8.18;82.99;99313.03;1734379;81;21195;-92
2020/12/23 18:28:20;;;;;;;31.25;14.58;;;;;;;8.17;82.67;99304.83;1728215;82;21279;-88
2020/12/23 18:30:48;;;;;;;43.20;20.82;;;;;;;8.09;82.78;99316.57;1708261;80;21308;-91
2020/12/23 18:33:16;;;;;;;31.30;15.28;;;;;;;8.03;82.79;99325.70;1697480;79;21217;-91
2020/12/23 18:35:47;;;;;;;33.63;14.93;;;;;;;7.99;83.02;99321.44;1672065;82;21205;-90
2020/12/23 18:38:14;;;;;;;28.12;15.05;;;;;;;7.95;83.38;99314.58;1686290;83;21173;-90
2020/12/23 18:40:42;;;;;;;32.85;17.10;;;;;;;7.94;83.11;99313.73;1682976;83;21207;-90
2020/12/23 18:44:07;;;;;;;;;;;;;;;7.91;83.06;99311.61;1725565;81;21200;-90
2020/12/23 18:46:36;;;;;;;29.15;13.68;;;;;;;7.87;83.50;99312.07;1731291;81;20189;-90
2020/12/23 18:49:35;;;;;;;26.97;12.75;;;;;;;7.84;83.32;99301.77;1680941;81;21605;-91
2020/12/23 18:52:03;;;;;;;22.70;10.32;;;;;;;7.84;83.10;99303.47;1670945;84;21196;-90
2020/12/23 18:54:30;;;;;;;23.50;10.30;;;;;;;7.84;83.58;99300.47;1659079;85;21233;-91
2020/12/23 18:56:58;;;;;;;21.05;10.18;;;;;;;7.89;83.31;99302.55;1628532;85;21261;-87
2020/12/23 18:59:26;;;;;;;24.63;10.80;;;;;;;7.99;83.21;99308.49;1683148;82;21546;-90
2020/12/23 19:01:53;;;;;;;18.82;9.73;;;;;;;8.09;83.17;99316.57;1690675;83;21173;-88
2020/12/23 19:04:21;;;;;;;19.75;9.05;;;;;;;8.17;83.23;99321.22;1697581;83;21200;-88
2020/12/23 19:06:48;;;;;;;17.02;8.43;;;;;;;8.26;82.31;99327.20;1638021;81;21755;-91
2020/12/23 19:09:16;;;;;;;18.52;9.65;;;;;;;8.41;81.65;99312.77;1631964;87;21218;-91
2020/12/23 19:11:43;;;;;;;20.50;8.78;;;;;;;8.52;81.95;99317.38;1638401;86;21197;-91
2020/12/23 19:14:10;;;;;;;18.25;9.15;;;;;;;8.63;81.29;99327.59;1638185;86;21266;-88
2020/12/23 19:16:58;;;;;;;22.30;10.68;;;;;;;8.71;81.56;99329.67;1678475;83;21900;-88
2020/12/23 19:19:25;;;;;;;18.75;9.88;;;;;;;8.75;80.84;99333.05;1654532;85;21168;-91
2020/12/23 19:21:52;;;;;;;20.88;10.23;;;;;;;8.76;81.04;99331.73;1697433;83;21213;-89
2020/12/23 19:24:20;;;;;;;16.90;8.83;;;;;;;8.75;80.59;99334.34;1696020;83;21204;-89
2020/12/23 19:26:49;;;;;;;22.82;9.33;;;;;;;8.75;80.66;99338.23;1698678;82;21181;-89
2020/12/23 19:29:56;;;;;;;19.20;10.08;;;;;;;8.76;80.74;99341.26;1658932;85;21220;-90
2020/12/23 19:32:24;;;;;;;17.87;8.30;;;;;;;8.78;80.30;99335.61;1650316;83;21275;-91
2020/12/23 19:34:53;;;;;;;20.15;9.05;;;;;;;8.84;80.70;99342.45;1670105;83;21206;-87
2020/12/23 19:37:21;;;;;;;17.57;9.13;;;;;;;8.89;81.00;99337.63;1687675;80;21323;-90
2020/12/23 19:39:50;;;;;;;20.23;9.93;;;;;;;8.93;80.05;99339.70;1730131;79;21773;-89
2020/12/23 19:42:18;;;;;;;29.23;10.75;;;;;;;9.03;80.21;99348.21;1705780;83;21682;-90
2020/12/23 19:44:45;;;;;;;24.27;11.08;;;;;;;9.10;80.38;99339.02;1675451;84;21239;-91
2020/12/23 19:47:16;;;;;;;23.02;11.80;;;;;;;9.15;79.90;99346.73;1635120;86;21355;-90
2020/12/23 19:49:43;;;;;;;22.30;11.48;;;;;;;9.17;79.77;99335.89;1719454;81;22580;-90
2020/12/23 19:52:10;;;;;;;25.37;11.43;;;;;;;9.20;79.61;99345.38;1750848;81;21200;-91
2020/12/23 19:54:38;;;;;;;23.02;11.90;;;;;;;9.22;79.20;99351.41;1752399;81;21264;-88
2020/12/23 19:57:07;;;;;;;19.62;10.85;;;;;;;9.22;79.77;99357.44;1750402;81;21298;-89
2020/12/23 19:59:34;;;;;;;27.80;11.25;;;;;;;9.23;78.96;99366.95;1748472;81;21310;-91
2020/12/23 20:02:01;;;;;;;26.23;11.70;;;;;;;9.27;78.88;99371.62;1724834;82;21361;-90
2020/12/23 20:04:30;;;;;;;26.55;12.53;;;;;;;9.28;78.68;99366.88;1698018;84;21375;-87
2020/12/23 20:07:06;;;;;;;23.70;11.15;;;;;;;9.28;78.89;99369.02;1673506;84;21162;-91
2020/12/23 20:09:33;;;;;;;26.45;10.53;;;;;;;9.30;78.82;99380.23;1695470;84;21744;-91
2020/12/23 20:12:06;;;;;;;22.20;11.10;;;;;;;9.29;78.87;99380.24;1695883;84;21200;-87
2020/12/23 20:14:34;;;;;;;22.00;10.68;;;;;;;9.27;79.02;99375.52;1691985;80;21239;-90
2020/12/23 20:20:29;;;;;;;25.52;11.95;;;;;;;9.26;79.24;99372.08;1725179;80;21106;-86
2020/12/23 20:22:57;;;;;;;23.70;12.15;;;;;;;9.22;78.68;99383.37;1689446;81;21202;-91
2020/12/23 20:25:24;;;;;;;27.52;13.32;;;;;;;9.21;78.91;99380.38;1738787;81;21141;-91
2020/12/23 20:27:58;;;;;;;28.55;14.50;;;;;;;9.22;79.37;99381.23;1724666;81;21289;-86
2020/12/23 20:30:25;;;;;;;;;;;;;;;9.15;79.15;99383.92;1718076;82;21196;-91
2020/12/23 20:32:52;;;;;;;31.55;14.25;;;;;;;9.13;79.15;99375.72;1706489;82;20203;-89
2020/12/23 20:35:20;;;;;;;52.03;23.62;;;;;;;9.10;79.17;99371.89;1726276;82;21201;-91
2020/12/23 20:37:54;;;;;;;38.50;19.02;;;;;;;9.04;79.31;99364.20;1686587;82;21232;-90
2020/12/23 20:40:23;;;;;;;39.95;21.12;;;;;;;9.01;79.09;99365.53;1667574;82;21547;-90
2020/12/23 20:42:51;;;;;;;32.05;15.32;;;;;;;8.85;79.45;99367.03;1681854;83;21222;-91
2020/12/23 20:45:38;;;;;;;31.30;14.50;;;;;;;8.79;79.50;99364.53;1634282;84;21238;-89
2020/12/23 20:48:05;;;;;;;32.10;16.05;;;;;;;8.73;79.51;99355.55;1679459;84;21221;-89
2020/12/23 20:50:33;;;;;;;25.27;11.60;;;;;;;8.65;79.76;99359.53;1672246;84;21247;-91
2020/12/23 20:53:00;;;;;;;28.67;12.88;;;;;;;8.49;80.70;99358.86;1702811;81;21205;-89
2020/12/23 20:55:28;;;;;;;30.20;12.50;;;;;;;8.41;81.38;99362.41;1693511;82;21444;-89
2020/12/23 20:57:56;;;;;;;25.45;12.80;;;;;;;8.43;80.89;99360.23;1693235;83;21592;-89
2020/12/23 21:00:23;;;;;;;33.98;15.28;;;;;;;8.44;81.05;99365.01;1712675;82;21159;-88
2020/12/23 21:02:51;;;;;;;26.95;13.85;;;;;;;8.42;81.11;99385.75;1727861;82;21194;-87
2020/12/23 21:05:18;;;;;;;46.13;20.65;;;;;;;8.39;81.17;99379.70;1726712;82;21186;-88
2020/12/23 21:07:46;;;;;;;66.10;27.30;;;;;;;8.30;79.83;99381.53;1731874;82;21207;-87
2020/12/23 21:10:13;;;;;;;47.55;22.32;;;;;;;8.25;78.99;99377.27;1711094;82;21152;-86
2020/12/23 21:12:40;;;;;;;51.28;23.25;;;;;;;8.15;78.13;99373.92;1727608;82;21451;-90
2020/12/23 21:15:08;;;;;;;47.33;22.80;;;;;;;8.06;79.26;99372.74;1715162;82;21200;-88
2020/12/23 21:17:36;;;;;;;48.48;23.62;;;;;;;7.75;78.31;99375.17;1725813;82;21167;-88
2020/12/23 21:20:07;;;;;;;52.50;26.27;;;;;;;7.68;78.94;99365.77;1725029;82;21162;-90
2020/12/23 21:23:04;;;;;;;54.23;25.23;;;;;;;7.60;78.93;99370.16;1675437;82;21237;-86
2020/12/23 21:25:32;;;;;;;50.92;23.95;;;;;;;7.58;79.01;99378.36;1638811;86;21272;-91